createdAt,value
2022-09-11T00:13:37.529Z,66.66
2022-09-11T00:28:23.607Z,66.86
2022-09-11T00:37:59.367Z,66.99
2022-09-11T01:00:51.350Z,67.36
2022-09-11T01:03:23.015Z,67.19
2022-09-11T01:08:50.099Z,67.26
2022-09-11T01:12:01.545Z,67.35
2022-09-11T01:15:20.548Z,67.50
2022-09-11T01:18:42.056Z,67.89
2022-09-11T01:21:43.048Z,68.05
2022-09-11T01:24:44.440Z,67.57
2022-09-11T01:27:39.053Z,67.52
2022-09-11T01:30:13.578Z,67.64
2022-09-11T01:33:02.424Z,67.62
2022-09-11T01:35:38.267Z,67.77
2022-09-11T01:38:40.457Z,67.77
2022-09-11T01:41:22.201Z,67.59
2022-09-11T01:44:20.135Z,68.00
2022-09-11T01:46:54.164Z,67.70
2022-09-11T01:49:56.411Z,67.62
2022-09-11T01:53:05.080Z,67.86
2022-09-11T01:58:50.139Z,68.08
2022-09-11T02:01:29.616Z,67.88
2022-09-11T02:04:07.716Z,68.29
2022-09-11T02:06:49.923Z,68.10
2022-09-11T02:09:20.494Z,68.14
2022-09-11T02:11:54.128Z,68.33
2022-09-11T02:14:41.864Z,68.09
2022-09-11T02:24:21.490Z,68.67
2022-09-11T02:27:14.157Z,68.34
2022-09-11T02:36:38.640Z,68.32
2022-09-11T02:44:09.635Z,68.42
2022-09-11T02:50:53.646Z,68.82
2022-09-11T02:57:06.393Z,68.70
2022-09-11T02:59:51.653Z,68.78
2022-09-11T03:02:50.020Z,68.51
2022-09-11T03:17:11.847Z,68.83
2022-09-11T03:19:43.066Z,68.87
2022-09-11T03:22:24.651Z,68.38
2022-09-11T03:25:11.376Z,68.64
2022-09-11T03:27:51.197Z,68.53
2022-09-11T03:30:22.923Z,68.48
2022-09-11T03:42:47.352Z,68.81
2022-09-11T03:45:29.949Z,68.86
2022-09-11T03:52:38.380Z,69.21
2022-09-11T03:55:24.885Z,68.98
2022-09-11T04:04:27.094Z,69.84
2022-09-11T04:14:06.938Z,69.09
2022-09-11T04:17:05.389Z,68.92
2022-09-11T04:19:56.119Z,69.13
2022-09-11T04:22:36.366Z,69.13
2022-09-11T04:25:09.876Z,68.94
2022-09-11T04:31:12.812Z,68.90
2022-09-11T04:33:57.674Z,69.16
2022-09-11T04:36:44.959Z,68.91
2022-09-11T04:42:15.980Z,69.12
2022-09-11T04:45:32.025Z,69.12
2022-09-11T04:48:40.350Z,69.15
2022-09-11T04:51:58.821Z,69.35
2022-09-11T04:54:36.193Z,69.05
2022-09-11T04:57:23.066Z,68.99
2022-09-11T04:59:57.623Z,69.81
2022-09-11T05:02:29.344Z,69.49
2022-09-11T05:05:05.989Z,69.30
2022-09-11T05:07:41.530Z,69.12
2022-09-11T05:14:16.744Z,69.14
2022-09-11T05:16:49.815Z,69.53
2022-09-11T05:40:57.017Z,70.02
2022-09-11T05:44:17.134Z,69.97
2022-09-11T05:48:12.546Z,70.29
2022-09-11T06:02:06.831Z,70.13
2022-09-11T06:04:47.667Z,69.94
2022-09-11T06:10:38.222Z,70.62
2022-09-11T06:13:19.045Z,69.99
2022-09-11T06:15:51.301Z,70.11
2022-09-11T06:18:20.552Z,70.04
2022-09-11T06:24:15.601Z,70.30
2022-09-11T06:41:31.240Z,70.39
2022-09-11T06:44:10.325Z,70.46
2022-09-11T06:49:44.266Z,70.50
2022-09-11T06:52:28.680Z,70.45
2022-09-11T06:55:28.833Z,70.51
2022-09-11T06:58:04.248Z,70.36
2022-09-11T07:07:16.373Z,70.95
2022-09-11T07:21:21.083Z,70.74
2022-09-11T07:23:54.990Z,70.62
2022-09-11T07:26:23.825Z,70.85
2022-09-11T07:35:59.875Z,71.34
2022-09-11T07:42:14.964Z,71.60
2022-09-11T07:44:43.400Z,71.33
2022-09-11T07:47:12.230Z,71.12
2022-09-11T07:49:47.264Z,71.50
2022-09-11T07:52:17.058Z,71.34
2022-09-11T07:54:51.274Z,71.11
2022-09-11T07:57:37.607Z,71.44
2022-09-11T08:00:12.596Z,71.16
2022-09-11T08:03:20.524Z,71.21
2022-09-11T08:06:22.406Z,70.91
2022-09-11T08:37:18.483Z,69.99
2022-09-11T09:19:15.053Z,71.20
2022-09-11T09:25:38.034Z,72.07
2022-09-11T10:25:47.960Z,66.12
2022-09-11T10:31:54.801Z,66.45
2022-09-11T10:59:47.222Z,63.82
2022-09-11T11:05:52.458Z,63.55
2022-09-11T11:08:22.801Z,63.47
2022-09-11T11:11:32.345Z,63.36
2022-09-11T11:14:36.886Z,62.52
2022-09-11T11:17:52.929Z,62.02
2022-09-11T11:21:00.209Z,61.81
2022-09-11T11:23:44.742Z,61.56
2022-09-11T12:41:38.304Z,60.19
2022-09-11T13:12:27.255Z,60.02
2022-09-11T13:22:39.444Z,59.46
2022-09-11T13:25:39.527Z,59.45
2022-09-11T13:28:18.566Z,59.53
2022-09-11T13:31:00.682Z,59.77
2022-09-11T13:33:38.742Z,59.59
2022-09-11T13:36:35.587Z,59.56
2022-09-11T13:39:05.644Z,59.42
2022-09-11T13:41:47.457Z,59.48
2022-09-11T15:18:26.723Z,62.18
2022-09-11T15:21:49.272Z,62.50
2022-09-11T15:31:06.964Z,61.79
2022-09-11T15:51:44.593Z,61.67
2022-09-11T15:54:20.411Z,61.01
2022-09-11T15:57:12.014Z,61.29
2022-09-11T16:02:42.932Z,61.37
2022-09-11T16:05:19.438Z,60.90
2022-09-11T16:13:53.503Z,61.99
2022-09-11T16:16:31.412Z,61.63
2022-09-11T16:25:10.916Z,61.74
2022-09-11T16:30:53.247Z,61.97
2022-09-11T16:33:22.029Z,61.86
2022-09-11T16:36:03.245Z,62.07
2022-09-11T16:38:30.533Z,61.93
2022-09-11T16:41:08.254Z,61.88
2022-09-11T16:43:36.121Z,61.97
2022-09-11T16:46:04.161Z,61.80
2022-09-11T16:54:26.238Z,61.98
2022-09-11T16:56:56.645Z,62.08
2022-09-11T17:02:27.450Z,62.36
2022-09-11T17:04:55.503Z,62.08
2022-09-11T17:07:23.977Z,62.16
2022-09-11T17:16:07.632Z,62.53
2022-09-11T17:18:37.235Z,62.40
2022-09-11T17:21:07.179Z,62.43
2022-09-11T17:30:11.655Z,62.76
2022-09-11T19:58:45.450Z,65.75
2022-09-11T21:11:56.205Z,66.94
2022-09-11T21:14:57.769Z,66.87
2022-09-11T21:17:52.104Z,67.17
2022-09-11T21:20:28.650Z,67.02
2022-09-11T21:23:01.541Z,66.92
2022-09-11T21:25:29.567Z,67.34
2022-09-11T21:27:59.525Z,67.13
2022-09-11T21:30:32.341Z,67.04
2022-09-11T21:32:59.979Z,66.88
2022-09-11T21:35:29.789Z,66.85
2022-09-11T21:37:57.869Z,66.69
2022-09-11T21:40:29.013Z,66.85
2022-09-11T21:42:57.383Z,66.97
2022-09-11T21:45:25.640Z,67.05
2022-09-11T21:47:54.084Z,67.15
2022-09-11T21:50:22.019Z,67.02
2022-09-11T21:52:59.758Z,66.79
2022-09-11T21:55:56.248Z,67.15
2022-09-11T21:58:37.931Z,67.30
2022-09-11T22:01:09.092Z,67.29
2022-09-11T22:03:38.840Z,67.14
2022-09-11T22:06:09.054Z,67.42
2022-09-11T22:08:38.569Z,67.49
2022-09-11T22:11:10.123Z,67.41
2022-09-11T22:13:39.424Z,67.40
2022-09-11T22:16:12.943Z,67.35
2022-09-11T22:18:41.351Z,67.54
2022-09-11T22:21:10.979Z,67.48
2022-09-11T22:23:48.524Z,67.67
2022-09-11T22:26:19.471Z,67.80
2022-09-11T22:28:46.960Z,67.88
2022-09-11T22:31:20.747Z,67.76
2022-09-11T22:33:48.041Z,67.66
2022-09-11T22:36:23.519Z,67.86
2022-09-11T22:38:50.757Z,67.91
2022-09-11T22:41:18.184Z,67.91
2022-09-11T22:43:45.618Z,67.82
2022-09-11T22:46:12.836Z,67.93
2022-09-11T22:48:41.258Z,67.94
2022-09-11T22:51:23.404Z,67.82
2022-09-11T22:56:40.727Z,68.32
2022-09-11T22:59:18.555Z,68.15
2022-09-11T23:01:48.795Z,67.58
2022-09-11T23:07:21.339Z,67.79
2022-09-11T23:09:58.101Z,68.05
2022-09-11T23:15:13.594Z,68.01
2022-09-11T23:17:44.836Z,68.09
2022-09-11T23:20:12.344Z,68.22
2022-09-11T23:22:42.730Z,68.15
2022-09-11T23:42:41.588Z,68.26
2022-09-11T23:45:18.720Z,68.40
2022-09-11T23:48:07.328Z,68.28
2022-09-11T23:50:42.055Z,68.36
2022-09-11T23:53:14.960Z,68.28
2022-09-11T23:55:51.702Z,68.29
2022-09-11T23:58:20.714Z,68.03
